Time;durP1;ratioP1;P1;durP2;ratioP2;P2;SDS_P1;SDS_P2;PMS_P1;PMS_P2;Temp;Humidity;BMP_temperature;BMP_pressure;BME280_temperature;BME280_humidity;BME280_pressure;Samples;Min_cycle;Max_cycle;Signal;HPM_P1;HPM_P2
2022/11/27 00:00:59;;;;;;;19.90;11.93;;;;;;;6.85;100.00;102422.44;4958144;28;20793;-62
2022/11/27 00:03:26;;;;;;;18.30;11.30;;;;;;;6.87;100.00;102418.16;4957790;28;20634;-62
2022/11/27 00:05:55;;;;;;;13.93;10.87;;;;;;;6.90;100.00;102424.41;4956672;28;20317;-62
2022/11/27 00:08:24;;;;;;;14.27;10.17;;;;;;;6.91;100.00;102420.06;4952521;28;20241;-62
2022/11/27 00:10:51;;;;;;;17.20;9.07;;;;;;;6.91;100.00;102414.84;4960287;28;20341;-62
2022/11/27 00:13:18;;;;;;;18.73;11.67;;;;;;;6.93;100.00;102408.88;4957601;28;20350;-62
2022/11/27 00:15:45;;;;;;;16.77;10.37;;;;;;;6.95;100.00;102408.94;4955399;28;20249;-62
2022/11/27 00:18:14;;;;;;;15.37;10.00;;;;;;;7.01;100.00;102411.78;4957964;28;20247;-61
2022/11/27 00:20:40;;;;;;;12.63;9.50;;;;;;;7.02;100.00;102415.28;4956225;28;20250;-62
2022/11/27 00:23:07;;;;;;;17.17;10.53;;;;;;;7.05;100.00;102411.06;4953316;28;20231;-62
2022/11/27 00:25:34;;;;;;;19.03;11.33;;;;;;;7.02;100.00;102420.50;4956478;28;20365;-62
2022/11/27 00:28:01;;;;;;;16.10;10.10;;;;;;;7.04;100.00;102421.47;4955369;28;20238;-62
2022/11/27 00:30:28;;;;;;;18.43;11.07;;;;;;;7.08;100.00;102428.59;4958733;28;20992;-62
2022/11/27 00:32:55;;;;;;;16.60;9.87;;;;;;;7.12;100.00;102422.66;4956825;28;20333;-62
2022/11/27 00:35:24;;;;;;;18.37;10.37;;;;;;;7.14;100.00;102418.41;4953769;28;20575;-61
2022/11/27 00:37:51;;;;;;;17.30;10.33;;;;;;;7.09;100.00;102417.31;4952999;28;20234;-64
2022/11/27 00:40:18;;;;;;;14.30;10.27;;;;;;;7.08;100.00;102421.66;4953496;28;20326;-62
2022/11/27 00:42:45;;;;;;;19.30;10.93;;;;;;;7.17;100.00;102419.41;4958647;28;20281;-62
2022/11/27 00:45:11;;;;;;;14.20;10.20;;;;;;;7.13;100.00;102416.63;4954290;28;20231;-63
2022/11/27 00:47:39;;;;;;;17.80;11.10;;;;;;;7.16;100.00;102421.97;4951893;28;20626;-64
2022/11/27 00:50:07;;;;;;;18.03;10.93;;;;;;;7.11;100.00;102413.94;4956520;28;20349;-62
2022/11/27 00:52:35;;;;;;;21.00;11.47;;;;;;;7.15;100.00;102405.38;4957574;28;20623;-61
2022/11/27 00:55:02;;;;;;;16.67;10.90;;;;;;;7.06;100.00;102404.16;4947394;28;20289;-62
2022/11/27 00:57:29;;;;;;;17.23;10.93;;;;;;;7.12;100.00;102410.50;4957493;28;20321;-62
2022/11/27 00:59:56;;;;;;;19.10;10.73;;;;;;;7.05;100.00;102413.69;4957084;28;20615;-63
2022/11/27 01:02:23;;;;;;;20.77;12.23;;;;;;;6.99;100.00;102407.34;4956563;28;20630;-62
2022/11/27 01:04:50;;;;;;;15.20;10.10;;;;;;;6.98;100.00;102401.22;4948321;28;20261;-62
2022/11/27 01:07:17;;;;;;;15.63;9.93;;;;;;;6.97;100.00;102402.03;4955090;28;20246;-61
2022/11/27 01:09:45;;;;;;;13.20;9.80;;;;;;;6.99;100.00;102403.00;4953159;28;20696;-62
2022/11/27 01:12:12;;;;;;;16.33;11.30;;;;;;;7.03;100.00;102393.59;4957868;28;20255;-62
2022/11/27 01:14:39;;;;;;;15.50;11.40;;;;;;;7.00;100.00;102396.06;4952821;28;20234;-62
2022/11/27 01:17:06;;;;;;;11.87;9.53;;;;;;;7.00;100.00;102394.34;4955860;28;20242;-62
2022/11/27 01:19:33;;;;;;;16.63;10.03;;;;;;;7.00;100.00;102378.69;4959425;28;20294;-62
2022/11/27 01:22:00;;;;;;;16.83;9.63;;;;;;;7.00;100.00;102389.13;4950700;28;20250;-62
2022/11/27 01:24:26;;;;;;;19.40;10.87;;;;;;;6.96;100.00;102389.81;4954451;28;20309;-62
2022/11/27 01:26:55;;;;;;;19.27;9.63;;;;;;;6.98;100.00;102384.66;4956259;28;20641;-63
2022/11/27 01:29:22;;;;;;;18.03;9.47;;;;;;;7.01;100.00;102390.00;4952010;28;20238;-62
2022/11/27 01:31:48;;;;;;;21.97;10.67;;;;;;;6.95;100.00;102395.88;4948558;28;20754;-62
2022/11/27 01:34:18;;;;;;;14.90;9.63;;;;;;;6.97;100.00;102383.78;4955039;28;20231;-62
2022/11/27 01:36:45;;;;;;;14.83;10.63;;;;;;;6.98;100.00;102380.31;4955239;28;20599;-61
2022/11/27 01:39:15;;;;;;;18.93;10.80;;;;;;;6.97;100.00;102377.66;4958350;28;20239;-62
2022/11/27 01:41:42;;;;;;;20.63;10.83;;;;;;;6.86;100.00;102370.28;4947717;28;20267;-61
2022/11/27 01:44:42;;;;;;;19.97;10.27;;;;;;;6.87;100.00;102361.63;4957845;28;20325;-61
2022/11/27 01:47:14;;;;;;;17.13;9.83;;;;;;;6.83;100.00;102358.81;4959736;28;20293;-61
2022/11/27 01:49:44;;;;;;;13.57;10.30;;;;;;;6.79;100.00;102360.41;4947887;28;20301;-61
2022/11/27 01:52:13;;;;;;;17.77;9.27;;;;;;;6.81;100.00;102355.25;4954283;28;20705;-62
2022/11/27 01:54:43;;;;;;;15.00;8.77;;;;;;;6.84;100.00;102352.75;4955591;28;20247;-61
2022/11/27 01:57:14;;;;;;;13.93;8.80;;;;;;;6.84;100.00;102348.44;4956887;28;20265;-62
2022/11/27 01:59:41;;;;;;;15.93;10.03;;;;;;;6.79;100.00;102347.38;4959159;28;20234;-62
2022/11/27 02:02:08;;;;;;;11.93;9.47;;;;;;;6.82;100.00;102330.94;4959193;28;20270;-62
2022/11/27 02:04:37;;;;;;;21.23;9.67;;;;;;;6.79;100.00;102334.31;4959516;28;20266;-61
2022/11/27 02:07:04;;;;;;;14.93;9.43;;;;;;;6.76;100.00;102331.59;4963218;28;20242;-61
2022/11/27 02:09:31;;;;;;;14.37;10.53;;;;;;;6.81;100.00;102332.69;4966068;28;20239;-61
2022/11/27 02:12:04;;;;;;;14.50;10.13;;;;;;;6.74;100.00;102327.13;4958303;28;20226;-61
2022/11/27 02:14:37;;;;;;;18.73;11.33;;;;;;;6.72;100.00;102323.56;4961313;28;20277;-61
2022/11/27 02:17:12;;;;;;;15.47;9.57;;;;;;;6.75;100.00;102328.91;4959058;28;20234;-60
2022/11/27 02:19:53;;;;;;;11.47;7.57;;;;;;;6.75;100.00;102329.81;4959969;28;20234;-62
2022/11/27 02:22:28;;;;;;;8.83;7.93;;;;;;;6.78;100.00;102337.75;4958426;28;20230;-61
2022/11/27 02:25:00;;;;;;;16.37;8.70;;;;;;;6.72;100.00;102334.00;4956723;28;20234;-61
2022/11/27 02:28:06;;;;;;;13.13;9.37;;;;;;;6.66;100.00;102332.91;4964893;28;20326;-61
2022/11/27 02:30:38;;;;;;;16.73;10.87;;;;;;;6.69;100.00;102325.22;4948994;28;20231;-62
2022/11/27 02:33:11;;;;;;;23.57;11.17;;;;;;;6.60;100.00;102330.09;4959768;28;20245;-61
2022/11/27 02:35:41;;;;;;;22.87;10.93;;;;;;;6.61;100.00;102330.97;4961671;28;20234;-61
2022/11/27 02:38:10;;;;;;;20.57;12.57;;;;;;;6.57;100.00;102334.28;4953801;28;20328;-62
2022/11/27 02:40:40;;;;;;;18.10;11.57;;;;;;;6.54;100.00;102335.03;4959335;28;20245;-61
2022/11/27 02:43:09;;;;;;;13.73;9.47;;;;;;;6.52;100.00;102334.06;4953036;28;20250;-62
2022/11/27 02:45:40;;;;;;;18.87;11.63;;;;;;;6.64;100.00;102331.97;4957125;28;20239;-61
2022/11/27 02:48:08;;;;;;;18.30;10.67;;;;;;;6.60;100.00;102330.09;4970896;28;20242;-62
2022/11/27 02:50:37;;;;;;;18.83;11.70;;;;;;;6.51;100.00;102334.91;4965369;28;21796;-61
2022/11/27 02:53:08;;;;;;;15.57;11.07;;;;;;;6.50;100.00;102332.25;4964737;28;20249;-62
2022/11/27 02:55:36;;;;;;;19.13;11.50;;;;;;;6.41;100.00;102337.97;4959338;28;20273;-63
2022/11/27 02:58:07;;;;;;;14.23;10.43;;;;;;;6.41;100.00;102335.34;4962315;28;20269;-62
2022/11/27 03:00:37;;;;;;;13.90;10.40;;;;;;;6.45;100.00;102330.31;4959196;28;20238;-62
2022/11/27 03:03:06;;;;;;;21.17;11.97;;;;;;;6.44;100.00;102320.72;4956290;28;20235;-62
2022/11/27 03:05:36;;;;;;;16.47;10.67;;;;;;;6.39;100.00;102324.00;4959028;28;20313;-61
2022/11/27 03:08:05;;;;;;;20.77;10.87;;;;;;;6.46;100.00;102315.59;4959316;28;20338;-62
2022/11/27 03:10:36;;;;;;;15.97;11.27;;;;;;;6.34;100.00;102320.28;4961093;28;20629;-61
2022/11/27 03:13:03;;;;;;;15.87;11.40;;;;;;;6.29;100.00;102316.59;4962427;28;20598;-62
2022/11/27 03:15:38;;;;;;;17.00;11.70;;;;;;;6.29;100.00;102311.38;4958314;28;20597;-62
2022/11/27 03:18:11;;;;;;;18.97;11.63;;;;;;;6.21;100.00;102319.78;4961067;28;20313;-61
2022/11/27 03:20:40;;;;;;;14.90;10.63;;;;;;;6.19;100.00;102310.97;4958918;28;20752;-62
2022/11/27 03:23:07;;;;;;;14.67;10.50;;;;;;;6.24;100.00;102320.72;4959731;28;20773;-63
2022/11/27 03:25:34;;;;;;;14.73;11.23;;;;;;;6.19;100.00;102329.25;4961103;28;20242;-62
2022/11/27 03:28:03;;;;;;;17.17;11.23;;;;;;;6.27;100.00;102313.03;4952029;28;20244;-62
2022/11/27 03:30:30;;;;;;;21.00;10.67;;;;;;;6.15;100.00;102323.84;4960005;28;20246;-61
2022/11/27 03:32:59;;;;;;;18.13;10.10;;;;;;;6.09;100.00;102319.25;4959600;28;20261;-63
2022/11/27 03:35:27;;;;;;;15.97;9.90;;;;;;;6.10;100.00;102325.34;4962731;28;20234;-63
2022/11/27 03:37:55;;;;;;;15.63;10.17;;;;;;;6.06;100.00;102329.53;4959655;28;20246;-63
2022/11/27 03:40:27;;;;;;;15.53;10.50;;;;;;;6.01;100.00;102330.19;4955752;28;20984;-61
2022/11/27 03:43:01;;;;;;;16.80;9.43;;;;;;;6.00;100.00;102331.88;4963257;28;20230;-61
2022/11/27 03:45:32;;;;;;;11.93;10.13;;;;;;;6.06;100.00;102324.31;4960931;28;20234;-61
2022/11/27 03:48:09;;;;;;;14.23;9.60;;;;;;;6.01;100.00;102320.63;4955897;28;20239;-62
2022/11/27 03:50:45;;;;;;;13.97;9.47;;;;;;;6.02;100.00;102326.75;4960203;28;20305;-62
2022/11/27 03:53:20;;;;;;;15.17;8.53;;;;;;;6.05;100.00;102314.72;4960567;28;20226;-62
2022/11/27 03:55:50;;;;;;;11.53;9.30;;;;;;;6.05;100.00;102317.34;4957914;28;20375;-62
2022/11/27 03:58:23;;;;;;;15.00;9.43;;;;;;;6.06;100.00;102321.72;4963535;28;20692;-62
2022/11/27 04:00:51;;;;;;;12.20;8.97;;;;;;;5.99;100.00;102327.50;4952652;28;20690;-61
2022/11/27 04:03:24;;;;;;;15.57;8.63;;;;;;;5.95;100.00;102325.56;4954804;28;20234;-62
2022/11/27 04:05:52;;;;;;;12.43;9.27;;;;;;;5.93;100.00;102322.00;4961153;28;20767;-61
2022/11/27 04:08:19;;;;;;;13.03;10.13;;;;;;;5.91;100.00;102313.22;4954703;28;20744;-61
2022/11/27 04:10:46;;;;;;;15.80;9.20;;;;;;;5.89;100.00;102317.44;4959062;28;20727;-62
2022/11/27 04:13:14;;;;;;;17.13;10.30;;;;;;;6.01;100.00;102320.63;4962760;28;20608;-61
2022/11/27 04:15:41;;;;;;;11.73;9.97;;;;;;;5.99;100.00;102317.06;4958888;28;20242;-61
2022/11/27 04:18:08;;;;;;;19.47;10.97;;;;;;;5.97;100.00;102308.31;4959385;28;20684;-61
2022/11/27 04:20:36;;;;;;;17.93;10.40;;;;;;;6.06;100.00;102313.88;4957452;28;20712;-61
2022/11/27 04:23:03;;;;;;;12.30;9.60;;;;;;;5.91;100.00;102318.41;4959148;28;20247;-62
2022/11/27 04:25:30;;;;;;;16.27;10.87;;;;;;;5.80;100.00;102322.28;4954187;28;20237;-61
2022/11/27 04:27:57;;;;;;;11.70;9.17;;;;;;;5.71;100.00;102328.84;4953106;28;20235;-61
2022/11/27 04:30:24;;;;;;;14.60;9.13;;;;;;;5.78;100.00;102321.31;4958718;28;20252;-61
2022/11/27 04:32:51;;;;;;;17.87;9.63;;;;;;;5.68;100.00;102325.22;4957967;28;20257;-61
2022/11/27 04:35:18;;;;;;;18.80;11.63;;;;;;;5.70;100.00;102327.06;4951457;28;20321;-62
2022/11/27 04:37:46;;;;;;;16.47;10.20;;;;;;;5.62;100.00;102324.97;4948155;28;20333;-60
2022/11/27 04:40:14;;;;;;;16.33;9.70;;;;;;;5.64;100.00;102324.19;4958762;28;20281;-61
2022/11/27 04:42:41;;;;;;;13.10;9.80;;;;;;;5.67;100.00;102326.03;4962102;28;20316;-61
2022/11/27 04:45:08;;;;;;;12.50;10.43;;;;;;;5.62;100.00;102325.84;4962440;28;20234;-61
2022/11/27 04:47:35;;;;;;;18.73;10.27;;;;;;;5.49;100.00;102328.72;4960370;28;20239;-61
2022/11/27 04:50:02;;;;;;;15.43;10.87;;;;;;;5.37;100.00;102320.34;4957182;28;20247;-61
2022/11/27 04:52:29;;;;;;;16.13;11.47;;;;;;;5.25;100.00;102321.56;4960726;28;20238;-62
2022/11/27 04:54:57;;;;;;;16.17;10.17;;;;;;;5.20;100.00;102315.25;4956449;28;20286;-61
2022/11/27 04:57:24;;;;;;;13.57;9.93;;;;;;;5.18;100.00;102324.69;4952521;28;20265;-62
2022/11/27 04:59:51;;;;;;;15.17;10.43;;;;;;;5.21;100.00;102319.63;4955777;28;20364;-62
2022/11/27 05:02:18;;;;;;;19.70;12.57;;;;;;;5.17;100.00;102314.22;4961707;28;20317;-62
2022/11/27 05:04:45;;;;;;;11.83;9.77;;;;;;;5.22;100.00;102320.53;4959580;28;20325;-61
2022/11/27 05:07:11;;;;;;;18.37;13.23;;;;;;;5.21;100.00;102317.03;4958589;28;20238;-62
2022/11/27 05:09:38;;;;;;;20.03;11.77;;;;;;;5.15;100.00;102316.75;4958440;28;20630;-62
2022/11/27 05:12:07;;;;;;;15.07;11.27;;;;;;;5.13;100.00;102318.41;4955652;28;20814;-62
2022/11/27 05:14:34;;;;;;;15.80;10.47;;;;;;;5.13;100.00;102323.59;4953073;28;20620;-61
2022/11/27 05:17:00;;;;;;;17.57;10.47;;;;;;;5.11;100.00;102319.13;4958438;28;21176;-60
2022/11/27 05:19:29;;;;;;;12.77;10.17;;;;;;;5.07;100.00;102320.72;4962200;28;20700;-61
2022/11/27 05:21:56;;;;;;;15.70;10.87;;;;;;;4.93;100.00;102322.66;4952036;28;20309;-61
2022/11/27 05:24:25;;;;;;;17.10;10.97;;;;;;;4.86;100.00;102320.59;4961041;28;20314;-62
2022/11/27 05:26:52;;;;;;;13.30;10.27;;;;;;;4.86;100.00;102320.59;4962020;28;20242;-61
2022/11/27 05:29:21;;;;;;;13.77;11.03;;;;;;;4.89;100.00;102322.44;4959602;28;20329;-62
2022/11/27 05:31:48;;;;;;;17.03;11.13;;;;;;;4.77;100.00;102318.44;4955995;28;20313;-62
2022/11/27 05:34:15;;;;;;;13.53;11.20;;;;;;;4.63;100.00;102318.56;4955806;28;20682;-61
2022/11/27 05:36:42;;;;;;;15.30;12.13;;;;;;;4.63;100.00;102316.88;4960440;28;20356;-61
2022/11/27 05:39:10;;;;;;;18.23;10.97;;;;;;;4.57;100.00;102321.78;4960574;28;20650;-62
2022/11/27 05:41:37;;;;;;;16.60;11.93;;;;;;;4.53;100.00;102322.47;4963328;28;20235;-61
2022/11/27 05:44:05;;;;;;;12.93;11.40;;;;;;;4.48;100.00;102318.72;4961174;28;20237;-62
2022/11/27 05:46:33;;;;;;;17.00;10.63;;;;;;;4.50;100.00;102318.00;4965129;28;20257;-61
2022/11/27 05:49:00;;;;;;;14.47;12.53;;;;;;;4.46;100.00;102317.78;4959941;28;20573;-61
2022/11/27 05:51:27;;;;;;;21.13;12.20;;;;;;;4.46;100.00;102315.19;4964243;28;20316;-62
2022/11/27 05:53:54;;;;;;;17.20;11.73;;;;;;;4.39;100.00;102313.06;4964285;28;20321;-61
2022/11/27 05:56:20;;;;;;;16.83;12.83;;;;;;;4.46;100.00;102309.97;4959066;28;20233;-61
2022/11/27 05:58:48;;;;;;;22.93;12.43;;;;;;;4.42;100.00;102303.72;4957600;28;20704;-62
2022/11/27 06:01:16;;;;;;;14.30;10.93;;;;;;;4.33;100.00;102291.97;4964492;28;20317;-61
2022/11/27 06:03:45;;;;;;;18.43;11.80;;;;;;;4.36;100.00;102294.72;4958208;28;20868;-61
2022/11/27 06:06:14;;;;;;;18.37;12.10;;;;;;;4.33;100.00;102297.19;4955911;28;20689;-61
2022/11/27 06:08:41;;;;;;;19.27;11.80;;;;;;;4.37;100.00;102297.41;4959690;28;20250;-62
2022/11/27 06:11:09;;;;;;;18.13;11.10;;;;;;;4.33;100.00;102297.19;4957920;28;20300;-61
2022/11/27 06:13:36;;;;;;;17.33;10.70;;;;;;;4.36;100.00;102284.34;4962776;28;20240;-61
2022/11/27 06:16:07;;;;;;;16.57;11.33;;;;;;;4.49;100.00;102281.50;4963345;28;20234;-62
2022/11/27 06:18:34;;;;;;;15.53;10.80;;;;;;;4.50;100.00;102278.09;4961842;28;20333;-62
2022/11/27 06:21:06;;;;;;;15.03;11.17;;;;;;;4.67;100.00;102279.81;4959262;28;20294;-61
2022/11/27 06:23:33;;;;;;;15.83;11.43;;;;;;;4.50;100.00;102278.09;4964909;28;20681;-61
2022/11/27 06:26:01;;;;;;;14.43;10.77;;;;;;;4.50;100.00;102273.78;4958976;28;20242;-61
2022/11/27 06:28:28;;;;;;;14.27;10.60;;;;;;;4.42;100.00;102272.53;4960187;28;20243;-61
2022/11/27 06:30:55;;;;;;;17.47;11.37;;;;;;;4.34;100.00;102279.03;4964902;28;20334;-61
2022/11/27 06:33:21;;;;;;;12.90;10.83;;;;;;;4.31;100.00;102277.16;4955935;28;20243;-63
2022/11/27 06:35:48;;;;;;;17.17;10.47;;;;;;;4.31;100.00;102277.16;4964464;28;20371;-62
2022/11/27 06:38:16;;;;;;;15.30;10.40;;;;;;;4.28;100.00;102279.66;4963710;28;20243;-62
2022/11/27 06:40:44;;;;;;;16.97;11.37;;;;;;;4.27;100.00;102282.16;4962045;28;20354;-64
2022/11/27 06:43:10;;;;;;;14.87;10.30;;;;;;;4.36;100.00;102284.34;4964820;28;20238;-61
2022/11/27 06:45:37;;;;;;;16.30;10.87;;;;;;;4.26;100.00;102285.56;4956633;28;20720;-61
2022/11/27 06:48:04;;;;;;;16.13;10.20;;;;;;;4.34;100.00;102280.75;4958687;28;20677;-62
2022/11/27 06:50:31;;;;;;;12.77;9.73;;;;;;;4.47;100.00;102285.75;4957685;28;20226;-62
2022/11/27 06:52:58;;;;;;;15.03;10.60;;;;;;;4.45;100.00;102283.06;4959890;28;20243;-61
2022/11/27 06:55:26;;;;;;;13.87;11.13;;;;;;;4.52;100.00;102290.34;4957897;28;20370;-62
2022/11/27 06:57:53;;;;;;;15.50;10.70;;;;;;;4.41;100.00;102290.63;4962152;28;21162;-62
2022/11/27 07:00:21;;;;;;;15.27;10.70;;;;;;;4.28;100.00;102294.31;4961738;28;20241;-61
2022/11/27 07:02:47;;;;;;;15.10;10.40;;;;;;;4.21;100.00;102287.97;4964176;28;20261;-62
2022/11/27 07:05:14;;;;;;;17.47;10.67;;;;;;;4.27;100.00;102283.03;4959958;28;20322;-61
2022/11/27 07:07:41;;;;;;;23.77;11.77;;;;;;;4.35;100.00;102290.31;4960064;28;20828;-62
2022/11/27 07:10:09;;;;;;;17.17;10.47;;;;;;;4.31;100.00;102284.97;4959670;28;20242;-61
2022/11/27 07:12:37;;;;;;;15.60;11.00;;;;;;;4.17;100.00;102274.72;4962378;28;20238;-61
2022/11/27 07:15:05;;;;;;;19.03;10.33;;;;;;;4.24;100.00;102267.28;4961860;28;20238;-61
2022/11/27 07:17:32;;;;;;;19.07;12.03;;;;;;;4.25;100.00;102263.91;4963578;28;20239;-62
2022/11/27 07:19:59;;;;;;;20.27;13.93;;;;;;;4.42;100.00;102261.22;4956680;28;20231;-61
2022/11/27 07:22:26;;;;;;;17.43;11.70;;;;;;;4.13;100.00;102260.66;4952787;28;20271;-62
2022/11/27 07:24:54;;;;;;;12.77;10.27;;;;;;;4.06;100.00;102256.00;4960431;28;20510;-62
2022/11/27 07:27:21;;;;;;;18.60;12.50;;;;;;;3.99;100.00;102259.97;4957145;28;20300;-61
2022/11/27 07:29:50;;;;;;;16.37;11.43;;;;;;;4.00;100.00;102260.88;4959611;28;20628;-61
2022/11/27 07:32:17;;;;;;;18.83;11.27;;;;;;;4.00;100.00;102256.59;4956966;28;20242;-63
2022/11/27 07:34:44;;;;;;;17.57;11.33;;;;;;;4.02;100.00;102254.94;4958171;28;20754;-61
2022/11/27 07:37:11;;;;;;;15.37;9.93;;;;;;;3.97;100.00;102256.44;4954382;28;20395;-63
2022/11/27 07:39:37;;;;;;;14.37;11.13;;;;;;;4.10;100.00;102252.72;4958759;28;20260;-62
2022/11/27 07:42:04;;;;;;;15.67;11.00;;;;;;;4.03;100.00;102250.63;4956365;28;20266;-61
2022/11/27 07:44:31;;;;;;;14.43;9.63;;;;;;;4.03;100.00;102251.50;4962371;28;20310;-60
2022/11/27 07:47:00;;;;;;;12.83;10.17;;;;;;;4.15;100.00;102250.38;4958549;28;20249;-62
2022/11/27 07:49:26;;;;;;;17.60;11.40;;;;;;;4.33;100.00;102255.59;4956887;28;20325;-62
2022/11/27 07:51:53;;;;;;;14.97;11.33;;;;;;;4.38;100.00;102246.28;4957406;28;20382;-62
2022/11/27 07:54:23;;;;;;;18.77;11.50;;;;;;;4.26;100.00;102250.06;4959529;28;20231;-62
2022/11/27 07:56:50;;;;;;;15.10;11.07;;;;;;;4.14;100.00;102245.97;4957110;28;20261;-62
2022/11/27 07:59:17;;;;;;;16.70;11.37;;;;;;;4.10;100.00;102242.31;4960304;28;20310;-62
2022/11/27 08:01:44;;;;;;;14.27;10.50;;;;;;;4.11;100.00;102243.22;4960009;28;20669;-61
2022/11/27 08:04:13;;;;;;;14.80;10.17;;;;;;;4.23;100.00;102252.50;4954224;28;20749;-61
2022/11/27 08:06:40;;;;;;;13.83;10.20;;;;;;;4.19;100.00;102253.19;4954101;28;20756;-62
2022/11/27 08:09:07;;;;;;;17.47;11.40;;;;;;;4.10;100.00;102252.72;4952127;28;20309;-61
2022/11/27 08:11:34;;;;;;;16.67;11.07;;;;;;;4.16;100.00;102247.84;4959369;28;20237;-62
2022/11/27 08:14:04;;;;;;;14.27;11.23;;;;;;;4.17;100.00;102249.59;4958840;28;20238;-61
2022/11/27 08:16:32;;;;;;;11.93;9.97;;;;;;;4.28;100.00;102240.66;4955450;28;20361;-61
2022/11/27 08:18:59;;;;;;;14.47;10.60;;;;;;;4.13;100.00;102237.28;4960357;28;20322;-61
2022/11/27 08:21:28;;;;;;;13.27;10.20;;;;;;;4.15;100.00;102240.88;4951166;28;20231;-62
2022/11/27 08:24:02;;;;;;;15.60;10.33;;;;;;;4.11;100.00;102244.13;5104293;27;20962;-61
2022/11/27 08:26:29;;;;;;;14.30;9.93;;;;;;;4.16;100.00;102240.03;5091938;27;20242;-62
2022/11/27 08:28:57;;;;;;;13.67;12.17;;;;;;;4.14;100.00;102243.38;5082566;28;20226;-62
2022/11/27 08:31:23;;;;;;;15.53;11.27;;;;;;;4.14;100.00;102244.28;5088277;28;20800;-61
2022/11/27 08:33:51;;;;;;;15.70;9.17;;;;;;;4.27;100.00;102244.03;5082858;28;20232;-61
2022/11/27 08:36:18;;;;;;;16.57;11.37;;;;;;;4.24;100.00;102233.50;5069666;28;20237;-61
2022/11/27 08:38:45;;;;;;;18.93;11.13;;;;;;;4.63;100.00;102238.81;5072942;28;20366;-62
2022/11/27 08:41:13;;;;;;;13.17;10.33;;;;;;;4.72;100.00;102246.19;5077305;28;20234;-62
2022/11/27 08:43:40;;;;;;;14.07;10.63;;;;;;;4.66;100.00;102241.56;5072857;28;20239;-62
2022/11/27 08:46:08;;;;;;;14.30;10.07;;;;;;;4.82;100.00;102245.81;5073981;28;20230;-61
2022/11/27 08:48:35;;;;;;;11.30;10.00;;;;;;;4.89;100.00;102246.97;5067852;28;20679;-61
2022/11/27 08:51:06;;;;;;;15.50;10.10;;;;;;;4.77;100.00;102245.59;5075396;28;20759;-61
2022/11/27 08:53:33;;;;;;;12.23;9.80;;;;;;;4.94;100.00;102243.75;5072453;28;20222;-61
2022/11/27 08:56:05;;;;;;;12.33;10.07;;;;;;;5.13;100.00;102236.81;5072710;28;20305;-61
2022/11/27 08:58:33;;;;;;;11.30;9.20;;;;;;;5.19;100.00;102235.34;5071267;28;20259;-61
2022/11/27 09:01:07;;;;;;;15.43;9.57;;;;;;;5.21;100.00;102245.84;5069900;28;20742;-61
2022/11/27 09:03:34;;;;;;;16.13;9.03;;;;;;;5.17;100.00;102237.00;5087760;28;20225;-60
2022/11/27 09:06:01;;;;;;;14.07;8.73;;;;;;;5.13;100.00;102240.31;5087770;28;20251;-61
2022/11/27 09:08:28;;;;;;;13.17;9.37;;;;;;;5.11;100.00;102231.50;5079623;28;20337;-61
2022/11/27 09:10:54;;;;;;;16.23;9.93;;;;;;;5.18;100.00;102235.28;5080348;27;20228;-59
2022/11/27 09:13:21;;;;;;;19.60;9.33;;;;;;;5.27;100.00;102235.72;5070834;28;20311;-59
2022/11/27 09:15:49;;;;;;;14.10;9.80;;;;;;;5.29;100.00;102243.59;5071675;28;20279;-60
2022/11/27 09:18:16;;;;;;;11.43;9.67;;;;;;;5.15;100.00;102241.25;5071559;28;20230;-61
2022/11/27 09:20:43;;;;;;;14.83;10.67;;;;;;;5.18;100.00;102223.16;5069714;27;20330;-61
2022/11/27 09:23:10;;;;;;;15.03;9.30;;;;;;;5.21;100.00;102233.72;5070508;28;20292;-61
2022/11/27 09:25:39;;;;;;;15.87;10.00;;;;;;;5.45;100.00;102223.50;5075588;28;20242;-60
2022/11/27 09:28:05;;;;;;;13.67;10.37;;;;;;;5.57;100.00;102223.13;5065137;28;20557;-61
2022/11/27 09:30:32;;;;;;;21.00;9.57;;;;;;;5.62;100.00;102226.84;5084183;28;20272;-61
2022/11/27 09:33:01;;;;;;;11.37;9.73;;;;;;;5.66;100.00;102218.31;5075519;28;20239;-61
2022/11/27 09:35:27;;;;;;;12.03;8.83;;;;;;;5.77;100.00;102216.19;5060734;28;20231;-62
2022/11/27 09:37:54;;;;;;;14.17;10.83;;;;;;;5.87;100.00;102214.84;5051247;28;20322;-61
2022/11/27 09:40:21;;;;;;;13.13;9.43;;;;;;;5.85;100.00;102209.56;5059381;28;20231;-62
2022/11/27 09:42:52;;;;;;;15.10;9.60;;;;;;;5.96;100.00;102212.66;5060645;28;20830;-61
2022/11/27 09:45:19;;;;;;;11.30;9.00;;;;;;;6.05;100.00;102206.94;5056667;28;20230;-62
2022/11/27 09:47:49;;;;;;;10.13;7.60;;;;;;;6.16;100.00;102200.44;5055540;28;20264;-62
2022/11/27 09:50:20;;;;;;;14.10;9.60;;;;;;;6.16;100.00;102206.53;5055757;28;20235;-61
2022/11/27 09:52:49;;;;;;;10.67;9.03;;;;;;;5.94;100.00;102202.19;5072842;28;20695;-62
2022/11/27 09:55:18;;;;;;;13.77;9.73;;;;;;;5.88;100.00;102193.16;5075100;28;20600;-61
2022/11/27 09:57:52;;;;;;;13.47;9.43;;;;;;;6.08;100.00;102197.53;5078226;28;20664;-61
2022/11/27 10:00:20;;;;;;;11.73;8.80;;;;;;;6.07;100.00;102200.06;5078534;28;20245;-61
2022/11/27 10:02:47;;;;;;;13.13;8.80;;;;;;;5.87;100.00;102202.72;5075742;28;20631;-62
2022/11/27 10:05:21;;;;;;;15.03;9.57;;;;;;;5.81;100.00;102196.34;5070168;28;20437;-61
2022/11/27 10:08:01;;;;;;;12.57;9.47;;;;;;;5.76;100.00;102196.16;5054281;28;20252;-60
2022/11/27 10:10:36;;;;;;;9.80;8.57;;;;;;;5.64;100.00;102196.50;5063021;28;20401;-60
2022/11/27 10:13:10;;;;;;;14.93;9.67;;;;;;;5.74;100.00;102196.09;5062285;28;20226;-61
2022/11/27 10:15:42;;;;;;;15.27;9.50;;;;;;;5.88;100.00;102193.16;5073047;28;20321;-62
2022/11/27 10:18:13;;;;;;;11.33;8.60;;;;;;;5.90;100.00;102196.75;5073969;28;20241;-61
2022/11/27 10:20:45;;;;;;;10.63;8.70;;;;;;;5.91;100.00;102194.19;5073759;28;20447;-61
2022/11/27 10:23:21;;;;;;;12.53;9.27;;;;;;;5.99;100.00;102197.13;5075359;28;20310;-62
2022/11/27 10:25:49;;;;;;;14.40;9.07;;;;;;;5.97;100.00;102193.59;5063671;28;20299;-61
2022/11/27 10:28:25;;;;;;;11.10;8.20;;;;;;;6.02;100.00;102183.34;5065001;28;20396;-61
2022/11/27 10:30:56;;;;;;;11.40;7.90;;;;;;;6.07;100.00;102184.41;5066010;28;21504;-60
2022/11/27 10:33:27;;;;;;;10.97;8.43;;;;;;;6.00;100.00;102183.28;5077859;28;20226;-61
2022/11/27 10:35:55;;;;;;;11.77;8.93;;;;;;;6.05;100.00;102181.75;5075542;28;20250;-60
2022/11/27 10:38:26;;;;;;;11.50;8.30;;;;;;;6.16;100.00;102183.06;5078648;28;20751;-60
2022/11/27 10:40:57;;;;;;;14.57;9.13;;;;;;;6.22;100.00;102178.13;5073014;28;20270;-61
2022/11/27 10:43:25;;;;;;;11.37;8.20;;;;;;;6.25;100.00;102176.44;5078441;28;20317;-58
2022/11/27 10:45:54;;;;;;;10.33;7.83;;;;;;;6.44;100.00;102166.78;5077371;28;20258;-60
2022/11/27 10:48:22;;;;;;;9.53;8.43;;;;;;;6.51;100.00;102167.94;5064502;28;20222;-60
2022/11/27 10:50:49;;;;;;;11.53;9.47;;;;;;;6.72;100.00;102177.41;5070449;28;20230;-60
2022/11/27 10:53:23;;;;;;;11.50;10.03;;;;;;;6.74;100.00;102167.91;5082005;28;20242;-60
2022/11/27 10:56:01;;;;;;;14.47;9.60;;;;;;;6.88;100.00;102164.09;5079538;28;20249;-61
2022/11/27 10:58:33;;;;;;;12.53;8.67;;;;;;;6.89;100.00;102158.94;5078156;28;20226;-60
2022/11/27 11:01:01;;;;;;;13.50;9.10;;;;;;;7.04;100.00;102161.22;5081597;28;20223;-61
2022/11/27 11:03:28;;;;;;;13.97;9.27;;;;;;;6.97;100.00;102163.56;5078906;28;20234;-61
2022/11/27 11:05:57;;;;;;;11.13;9.37;;;;;;;6.89;100.00;102150.22;5077267;28;20307;-61
2022/11/27 11:08:27;;;;;;;13.57;9.13;;;;;;;7.01;100.00;102141.94;5076439;28;20238;-60
2022/11/27 11:10:59;;;;;;;13.63;9.03;;;;;;;7.09;100.00;102148.31;5073865;28;20333;-60
2022/11/27 11:13:30;;;;;;;11.30;9.17;;;;;;;6.99;100.00;102147.13;5063739;28;20641;-60
2022/11/27 11:15:59;;;;;;;11.53;8.90;;;;;;;7.00;100.00;102158.44;5055591;28;20347;-61
2022/11/27 11:18:28;;;;;;;10.27;9.27;;;;;;;7.06;100.00;102163.91;5061853;28;20669;-60